Time;durP1;ratioP1;P1;durP2;ratioP2;P2;SDS_P1;SDS_P2;PMS_P1;PMS_P2;Temp;Humidity;BMP_temperature;BMP_pressure;BME280_temperature;BME280_humidity;BME280_pressure;Samples;Min_cycle;Max_cycle;Signal;HPM_P1;HPM_P2
2022/04/20 00:01:22;;;;;;;7.13;4.80;;;8.50;99.90;;;;;;5021514;28;20538;-55
2022/04/20 00:03:49;;;;;;;7.63;4.70;;;8.50;99.90;;;;;;5022173;28;20080;-59
2022/04/20 00:06:15;;;;;;;8.32;4.47;;;8.50;99.90;;;;;;5013546;28;20461;-57
2022/04/20 00:08:41;;;;;;;6.65;4.70;;;8.50;99.90;;;;;;5021432;28;20922;-57
2022/04/20 00:11:08;;;;;;;6.80;4.60;;;8.40;99.90;;;;;;5021971;28;20045;-53
2022/04/20 00:13:34;;;;;;;6.85;4.93;;;8.40;99.90;;;;;;5020384;28;20049;-54
2022/04/20 00:16:01;;;;;;;7.18;4.97;;;8.40;99.90;;;;;;5020654;28;20061;-57
2022/04/20 00:18:27;;;;;;;8.40;5.68;;;8.40;99.90;;;;;;5022284;28;20053;-57
2022/04/20 00:20:53;;;;;;;8.68;5.53;;;8.30;99.90;;;;;;5023670;28;20077;-54
2022/04/20 00:23:19;;;;;;;7.03;4.82;;;8.30;99.90;;;;;;5020561;28;20065;-55
2022/04/20 00:25:45;;;;;;;9.93;5.32;;;8.30;99.90;;;;;;4998976;28;20140;-57
2022/04/20 00:28:11;;;;;;;7.75;4.57;;;8.20;99.90;;;;;;5001723;28;20095;-54
2022/04/20 00:30:37;;;;;;;6.55;4.72;;;8.20;99.90;;;;;;5021846;28;20045;-57
2022/04/20 00:33:03;;;;;;;7.88;5.03;;;8.10;99.90;;;;;;5004120;28;20053;-55
2022/04/20 00:35:30;;;;;;;8.88;5.20;;;8.10;99.90;;;;;;5019363;28;20134;-57
2022/04/20 00:37:56;;;;;;;9.98;5.10;;;8.00;99.90;;;;;;5005402;28;20057;-57
2022/04/20 00:40:22;;;;;;;7.53;5.03;;;8.00;99.90;;;;;;5023320;28;20053;-54
2022/04/20 00:42:49;;;;;;;8.65;5.80;;;8.00;99.90;;;;;;5022258;28;20053;-55
2022/04/20 00:45:15;;;;;;;8.68;5.65;;;7.90;99.90;;;;;;5017213;28;20060;-54
2022/04/20 00:47:43;;;;;;;7.60;5.05;;;7.90;99.90;;;;;;5019858;28;20073;-57
2022/04/20 00:50:13;;;;;;;11.20;5.53;;;7.90;99.90;;;;;;5004892;28;20077;-53
2022/04/20 00:52:39;;;;;;;7.03;5.43;;;7.80;99.90;;;;;;5035237;28;20045;-55
2022/04/20 00:55:07;;;;;;;7.60;5.18;;;7.80;99.90;;;;;;4970643;28;20058;-57
2022/04/20 00:57:33;;;;;;;10.05;5.70;;;7.80;99.90;;;;;;5017738;28;20059;-57
2022/04/20 01:00:01;;;;;;;8.27;5.53;;;7.80;99.90;;;;;;5005871;28;20099;-54
2022/04/20 01:02:31;;;;;;;9.30;6.00;;;7.70;99.90;;;;;;5006214;28;20119;-55
2022/04/20 01:04:57;;;;;;;8.05;5.95;;;7.70;99.90;;;;;;5009622;28;20168;-55
2022/04/20 01:07:41;;;;;;;8.35;6.05;;;7.60;99.90;;;;;;5021451;28;20049;-54
2022/04/20 01:10:23;;;;;;;7.28;5.68;;;7.60;99.90;;;;;;5022631;28;20515;-55
2022/04/20 01:13:04;;;;;;;9.38;6.25;;;7.50;99.90;;;;;;5006234;28;20048;-58
2022/04/20 01:15:58;;;;;;;9.20;5.55;;;7.50;99.90;;;;;;5019553;28;20626;-54
2022/04/20 01:18:43;;;;;;;8.23;5.35;;;7.50;99.90;;;;;;5017880;28;20081;-57
2022/04/20 01:21:35;;;;;;;9.10;6.68;;;7.50;99.90;;;;;;4996230;28;20122;-56
2022/04/20 01:24:09;;;;;;;8.60;6.10;;;7.40;99.90;;;;;;5003235;28;20049;-57
2022/04/20 01:26:55;;;;;;;9.77;5.65;;;7.40;99.90;;;;;;5006526;28;20064;-57
2022/04/20 01:29:40;;;;;;;8.35;5.90;;;7.40;99.90;;;;;;5019359;28;20446;-57
2022/04/20 01:32:21;;;;;;;9.33;5.83;;;7.40;99.90;;;;;;5007892;28;20053;-57
2022/04/20 01:40:28;;;;;;;7.68;5.80;;;7.30;99.90;;;;;;5017700;28;20087;-54
2022/04/20 01:42:54;;;;;;;8.30;6.35;;;7.20;99.90;;;;;;5019003;28;20692;-55
2022/04/20 01:45:20;;;;;;;8.40;6.05;;;7.20;99.90;;;;;;5020929;28;20045;-55
2022/04/20 01:48:07;;;;;;;8.35;6.25;;;7.20;99.90;;;;;;5019394;28;20495;-54
2022/04/20 01:53:52;;;;;;;10.80;6.32;;;7.20;99.90;;;;;;5002682;28;20157;-57
2022/04/20 01:56:37;;;;;;;9.75;6.00;;;7.10;99.90;;;;;;5022074;28;20084;-57
2022/04/20 01:59:26;;;;;;;11.18;7.13;;;7.10;99.90;;;;;;5017561;28;20057;-56
2022/04/20 02:05:22;;;;;;;10.07;6.28;;;7.10;99.90;;;;;;5019496;28;20244;-57
2022/04/20 02:07:51;;;;;;;9.40;6.13;;;7.00;99.90;;;;;;5026691;28;20053;-57
2022/04/20 02:10:22;;;;;;;7.97;6.03;;;7.00;99.90;;;;;;4995038;28;20045;-58
2022/04/20 02:12:49;;;;;;;12.43;7.18;;;7.00;99.90;;;;;;5017758;28;20045;-58
2022/04/20 02:15:31;;;;;;;10.13;6.32;;;6.90;99.90;;;;;;5005118;28;20758;-58
2022/04/20 02:18:00;;;;;;;11.25;6.75;;;6.90;99.90;;;;;;5020197;28;20144;-58
2022/04/20 02:20:48;;;;;;;10.68;6.97;;;6.90;99.90;;;;;;5004413;28;20061;-54
2022/04/20 02:23:14;;;;;;;8.82;6.88;;;6.80;99.90;;;;;;5019048;28;20057;-54
2022/04/20 02:25:40;;;;;;;10.00;6.70;;;6.90;99.90;;;;;;5020638;28;20045;-55
2022/04/20 02:28:06;;;;;;;9.77;7.35;;;6.80;99.90;;;;;;5024992;28;20055;-53
2022/04/20 02:30:32;;;;;;;12.73;6.90;;;6.80;99.90;;;;;;5024106;28;20049;-53
2022/04/20 02:32:58;;;;;;;9.30;6.07;;;6.70;99.90;;;;;;5019944;28;20057;-54
2022/04/20 02:35:27;;;;;;;11.00;6.57;;;6.70;99.90;;;;;;4990276;28;20056;-55
2022/04/20 02:37:53;;;;;;;11.00;6.70;;;6.70;99.90;;;;;;5024468;28;20682;-53
2022/04/20 02:40:19;;;;;;;11.98;7.03;;;6.70;99.90;;;;;;5005253;28;20425;-54
2022/04/20 02:42:47;;;;;;;10.50;7.05;;;6.70;99.90;;;;;;5021521;28;20057;-55
2022/04/20 02:45:13;;;;;;;9.05;7.13;;;6.70;99.90;;;;;;5023058;28;20519;-52
2022/04/20 02:47:39;;;;;;;13.57;7.25;;;6.70;99.90;;;;;;5024946;28;20073;-54
2022/04/20 02:50:07;;;;;;;10.23;7.00;;;6.70;99.90;;;;;;5023043;28;20045;-55
2022/04/20 02:52:34;;;;;;;9.02;6.78;;;6.70;99.90;;;;;;4989094;28;20641;-55
2022/04/20 02:55:00;;;;;;;11.77;7.38;;;6.60;99.90;;;;;;5014552;28;20077;-56
2022/04/20 02:57:26;;;;;;;10.00;7.10;;;6.60;99.90;;;;;;5023656;28;20045;-55
2022/04/20 02:59:53;;;;;;;10.07;7.40;;;6.60;99.90;;;;;;5023033;28;21717;-55
2022/04/20 03:02:19;;;;;;;8.52;6.75;;;6.60;99.90;;;;;;5009188;28;20539;-55
2022/04/20 03:04:46;;;;;;;9.13;6.82;;;6.50;99.90;;;;;;4999819;28;20128;-58
2022/04/20 03:07:13;;;;;;;9.35;6.70;;;6.50;99.90;;;;;;5006919;28;20234;-58
2022/04/20 03:09:49;;;;;;;10.98;7.28;;;6.40;99.90;;;;;;5006286;28;20046;-58
2022/04/20 03:12:16;;;;;;;9.55;7.38;;;6.40;99.90;;;;;;5023485;28;20678;-55
2022/04/20 03:14:48;;;;;;;8.82;6.88;;;6.40;99.90;;;;;;5005464;28;20045;-53
2022/04/20 03:17:14;;;;;;;11.43;6.80;;;6.40;99.90;;;;;;4973830;28;20075;-55
2022/04/20 03:19:41;;;;;;;9.88;7.35;;;6.30;99.90;;;;;;5006815;28;20056;-55
2022/04/20 03:22:08;;;;;;;9.80;6.78;;;6.30;99.90;;;;;;5024074;28;20146;-55
2022/04/20 03:24:35;;;;;;;9.18;6.80;;;6.30;99.90;;;;;;5022303;28;20049;-58
2022/04/20 03:27:30;;;;;;;12.27;7.05;;;6.30;99.90;;;;;;4973727;28;20055;-55
2022/04/20 03:30:00;;;;;;;12.02;6.35;;;6.20;99.90;;;;;;5023724;28;20044;-54
2022/04/20 03:32:26;;;;;;;10.57;7.13;;;6.20;99.90;;;;;;5014382;28;20088;-54
2022/04/20 03:34:53;;;;;;;10.00;6.53;;;6.20;99.90;;;;;;5006184;28;20124;-57
2022/04/20 03:37:20;;;;;;;10.60;6.45;;;6.20;99.90;;;;;;5019958;28;20128;-57
2022/04/20 03:39:46;;;;;;;9.93;6.57;;;6.10;99.90;;;;;;5011871;28;20047;-57
2022/04/20 03:42:12;;;;;;;9.55;6.70;;;6.10;99.90;;;;;;5025078;28;20053;-57
2022/04/20 03:44:39;;;;;;;8.80;6.38;;;6.10;99.90;;;;;;5022851;28;20045;-57
2022/04/20 03:47:06;;;;;;;10.48;7.00;;;6.10;99.90;;;;;;4985730;28;20046;-57
2022/04/20 03:49:32;;;;;;;9.93;7.45;;;6.10;99.90;;;;;;5016430;28;20075;-57
2022/04/20 03:51:59;;;;;;;8.82;7.13;;;6.00;99.90;;;;;;5023471;28;20512;-55
2022/04/20 03:54:29;;;;;;;10.65;7.97;;;6.00;99.90;;;;;;5021734;28;20068;-54
2022/04/20 03:57:04;;;;;;;12.38;6.57;;;6.00;99.90;;;;;;4989942;28;20061;-54
2022/04/20 03:59:35;;;;;;;9.15;7.15;;;6.00;99.90;;;;;;5016243;28;20081;-55
2022/04/20 04:02:02;;;;;;;8.90;7.28;;;5.90;99.90;;;;;;5013907;28;20131;-56
2022/04/20 04:04:32;;;;;;;9.48;7.15;;;5.80;99.90;;;;;;5019225;28;20076;-54
2022/04/20 04:07:01;;;;;;;10.05;7.05;;;5.80;99.90;;;;;;5022043;28;20045;-54
2022/04/20 04:09:27;;;;;;;10.52;6.50;;;5.80;99.90;;;;;;5019432;28;20045;-54
2022/04/20 04:11:54;;;;;;;10.30;7.15;;;5.80;99.90;;;;;;5020808;28;20063;-54
2022/04/20 04:14:22;;;;;;;9.07;6.90;;;5.80;99.90;;;;;;5002319;28;20099;-54
2022/04/20 04:16:49;;;;;;;11.10;6.90;;;5.70;99.90;;;;;;5000874;28;20037;-57
2022/04/20 04:19:15;;;;;;;9.25;6.47;;;5.70;99.90;;;;;;5022631;28;20177;-57
2022/04/20 04:21:42;;;;;;;10.98;7.05;;;5.60;99.90;;;;;;4986733;28;20128;-57
2022/04/20 04:24:34;;;;;;;9.32;7.50;;;5.60;99.90;;;;;;5020981;28;20057;-57
2022/04/20 04:26:58;;;;;;;11.80;8.35;;;5.60;99.90;;;;;;5021476;28;20049;-53
2022/04/20 04:29:25;;;;;;;9.13;6.93;;;5.60;99.90;;;;;;5021982;28;20057;-54
2022/04/20 04:31:51;;;;;;;10.50;7.38;;;5.60;99.90;;;;;;5011766;28;20097;-53
2022/04/20 04:34:18;;;;;;;10.55;7.38;;;5.60;99.90;;;;;;5004208;28;20057;-53
2022/04/20 04:36:45;;;;;;;10.63;7.30;;;5.60;99.90;;;;;;5005210;28;20191;-57
2022/04/20 04:39:17;;;;;;;10.05;7.38;;;5.60;99.90;;;;;;5021469;28;20111;-57
2022/04/20 04:41:46;;;;;;;10.13;7.32;;;5.60;99.90;;;;;;4981168;28;20414;-57
2022/04/20 04:44:13;;;;;;;8.80;7.10;;;5.70;99.90;;;;;;5018329;28;20057;-57
2022/04/20 04:49:28;;;;;;;10.70;7.13;;;5.70;99.90;;;;;;5006955;28;20091;-58
2022/04/20 04:51:56;;;;;;;10.20;7.60;;;5.70;99.90;;;;;;5022816;28;20103;-58
2022/04/20 04:54:22;;;;;;;9.20;6.60;;;5.70;99.90;;;;;;4985432;28;20135;-58
2022/04/20 04:56:50;;;;;;;9.43;7.63;;;5.70;99.90;;;;;;5014540;28;20128;-57
2022/04/20 04:59:16;;;;;;;10.00;7.38;;;5.70;99.90;;;;;;5014713;28;20046;-58
2022/04/20 05:01:43;;;;;;;10.77;7.88;;;5.70;99.90;;;;;;5015289;28;20107;-53
2022/04/20 05:04:15;;;;;;;10.95;7.43;;;5.70;99.90;;;;;;5014361;28;20048;-53
2022/04/20 05:06:42;;;;;;;8.70;6.63;;;5.70;99.90;;;;;;5010671;28;20049;-54
2022/04/20 05:09:27;;;;;;;11.18;7.35;;;5.70;99.90;;;;;;5014611;28;20041;-54
2022/04/20 05:11:54;;;;;;;9.95;7.57;;;5.80;99.90;;;;;;4999381;28;20523;-54
2022/04/20 05:14:20;;;;;;;9.48;7.18;;;5.80;99.90;;;;;;4994784;28;20053;-57
2022/04/20 05:16:51;;;;;;;12.43;7.20;;;5.80;99.90;;;;;;5012367;28;20080;-57
2022/04/20 05:19:17;;;;;;;10.77;7.65;;;5.90;99.90;;;;;;4999660;28;20056;-57
2022/04/20 05:21:45;;;;;;;9.15;6.93;;;6.00;99.90;;;;;;5013226;28;20133;-57
2022/04/20 05:24:12;;;;;;;13.00;9.07;;;6.10;99.90;;;;;;4995765;28;20050;-57
2022/04/20 05:26:40;;;;;;;10.60;7.93;;;6.20;99.90;;;;;;5012411;28;20049;-57
2022/04/20 05:29:07;;;;;;;10.15;8.38;;;6.30;99.90;;;;;;4998064;28;20157;-54
2022/04/20 05:31:42;;;;;;;9.10;6.10;;;6.40;99.90;;;;;;5014443;28;20052;-55
2022/04/20 05:34:11;;;;;;;9.65;8.07;;;6.50;99.90;;;;;;5014667;28;20208;-53
2022/04/20 05:42:07;;;;;;;11.25;6.85;;;6.70;99.90;;;;;;5014221;28;20076;-53
2022/04/20 05:44:33;;;;;;;13.50;6.95;;;6.80;99.90;;;;;;5014200;28;20107;-55
2022/04/20 05:46:59;;;;;;;17.02;12.82;;;7.00;99.90;;;;;;5016514;28;20046;-56
2022/04/20 05:49:26;;;;;;;10.85;7.30;;;7.10;99.90;;;;;;5013899;28;20045;-55
2022/04/20 05:51:52;;;;;;;15.73;11.38;;;7.30;99.90;;;;;;5018355;28;20556;-56
2022/04/20 05:54:19;;;;;;;9.43;6.47;;;7.40;99.90;;;;;;5014275;28;20053;-57
2022/04/20 05:56:46;;;;;;;10.27;6.45;;;7.60;99.90;;;;;;4997769;28;20045;-57
2022/04/20 05:59:12;;;;;;;7.78;6.32;;;7.70;99.90;;;;;;5015530;28;20827;-56
2022/04/20 06:01:41;;;;;;;9.77;6.60;;;7.90;99.90;;;;;;5007299;28;20058;-54
2022/04/20 06:04:17;;;;;;;11.40;5.97;;;8.20;99.90;;;;;;5023093;28;20107;-56
2022/04/20 06:07:09;;;;;;;8.27;6.07;;;8.30;99.90;;;;;;5002788;28;20416;-56
2022/04/20 06:09:40;;;;;;;9.25;5.43;;;8.40;99.90;;;;;;5015765;28;20046;-55
2022/04/20 06:12:12;;;;;;;9.88;6.20;;;8.50;99.90;;;;;;5013611;28;20058;-55
2022/04/20 06:14:58;;;;;;;12.57;7.70;;;8.60;99.90;;;;;;5016551;28;20100;-55
2022/04/20 06:17:43;;;;;;;7.40;4.85;;;8.80;99.90;;;;;;5025138;28;20057;-58
2022/04/20 06:20:11;;;;;;;10.30;5.22;;;8.90;99.90;;;;;;5024172;28;20053;-56
2022/04/20 06:22:56;;;;;;;8.20;6.35;;;9.10;99.90;;;;;;5022797;28;20056;-56
2022/04/20 06:25:45;;;;;;;6.65;5.00;;;9.40;99.90;;;;;;5008983;28;20045;-52
2022/04/20 06:28:30;;;;;;;8.80;5.00;;;9.50;99.90;;;;;;4994024;28;20068;-49
2022/04/20 06:31:20;;;;;;;8.40;6.18;;;9.60;99.90;;;;;;5006665;28;20049;-50
2022/04/20 06:34:06;;;;;;;9.90;5.85;;;9.90;99.90;;;;;;5018387;28;20204;-52
2022/04/20 06:36:56;;;;;;;101.65;15.90;;;10.00;99.90;;;;;;5019554;28;20048;-53
2022/04/20 06:39:28;;;;;;;9.90;7.47;;;10.10;99.90;;;;;;5008813;28;20056;-49
2022/04/20 06:42:12;;;;;;;18.85;6.80;;;10.50;99.90;;;;;;5012114;28;20068;-49
2022/04/20 06:44:59;;;;;;;9.27;4.70;;;10.50;99.90;;;;;;5012184;28;20050;-51
2022/04/20 06:47:42;;;;;;;8.32;6.25;;;10.60;99.90;;;;;;5008641;28;20049;-50
2022/04/20 06:50:19;;;;;;;7.82;5.32;;;10.80;99.90;;;;;;5025375;28;20049;-47
2022/04/20 06:58:48;;;;;;;7.57;5.97;;;11.20;99.90;;;;;;5017588;28;20049;-50
2022/04/20 07:01:24;;;;;;;9.65;5.72;;;11.40;99.90;;;;;;5018053;28;20152;-50
2022/04/20 07:04:09;;;;;;;8.90;4.68;;;11.60;99.90;;;;;;5021643;28;20061;-55
2022/04/20 07:06:49;;;;;;;6.85;4.68;;;11.80;99.90;;;;;;5021974;28;20046;-54
2022/04/20 07:09:36;;;;;;;8.95;5.35;;;11.90;99.90;;;;;;5021718;28;20366;-55
2022/04/20 07:12:17;;;;;;;8.68;4.68;;;11.90;99.90;;;;;;5011649;28;20053;-54
2022/04/20 07:14:46;;;;;;;6.35;4.90;;;12.30;99.90;;;;;;5006067;28;20115;-54
2022/04/20 07:17:12;;;;;;;7.55;4.70;;;12.50;97.60;;;;;;5021975;28;20137;-57
2022/04/20 07:19:46;;;;;;;10.38;6.28;;;12.70;95.70;;;;;;5021002;28;20059;-53
2022/04/20 07:22:38;;;;;;;8.73;5.90;;;13.00;90.10;;;;;;5015131;28;20058;-51
2022/04/20 07:25:25;;;;;;;8.30;6.00;;;13.30;86.30;;;;;;5001895;28;20053;-52
2022/04/20 07:28:06;;;;;;;9.63;6.78;;;13.60;78.80;;;;;;4990252;28;20187;-49
2022/04/20 07:31:08;;;;;;;6.22;4.18;;;13.90;66.00;;;;;;4965144;28;20503;-50
2022/04/20 07:33:53;;;;;;;5.90;4.50;;;14.00;68.70;;;;;;5020555;28;20045;-48
2022/04/20 07:36:37;;;;;;;9.55;4.28;;;14.00;64.60;;;;;;5023204;28;20045;-53
2022/04/20 07:39:40;;;;;;;6.93;4.63;;;14.10;62.00;;;;;;5018157;28;20047;-51
2022/04/20 07:42:07;;;;;;;10.60;6.05;;;14.40;63.00;;;;;;5018639;28;20060;-51
2022/04/20 07:44:56;;;;;;;10.75;4.72;;;14.40;59.50;;;;;;5015670;28;20069;-49
2022/04/20 07:47:37;;;;;;;12.80;8.90;;;14.90;59.70;;;;;;4997966;28;20057;-51
2022/04/20 07:50:26;;;;;;;9.07;5.20;;;15.10;57.80;;;;;;5019671;28;20093;-51
2022/04/20 07:53:18;;;;;;;9.90;8.35;;;15.50;56.10;;;;;;5011987;28;20080;-53
2022/04/20 07:55:47;;;;;;;7.22;4.32;;;15.50;54.90;;;;;;5018128;28;20156;-53
2022/04/20 07:58:36;;;;;;;8.05;3.63;;;15.70;50.90;;;;;;5008993;28;20099;-53
2022/04/20 08:01:03;;;;;;;11.57;8.35;;;15.70;50.80;;;;;;5006650;28;20140;-52
2022/04/20 08:03:55;;;;;;;14.07;12.07;;;15.80;51.30;;;;;;5015235;28;20050;-53
2022/04/20 08:06:40;;;;;;;6.03;4.45;;;16.10;51.20;;;;;;5013122;28;20160;-51
2022/04/20 08:09:07;;;;;;;6.45;3.70;;;16.20;48.20;;;;;;5018391;28;20053;-53
2022/04/20 08:11:34;;;;;;;10.77;4.78;;;16.30;46.20;;;;;;4990096;28;20042;-51
2022/04/20 08:14:11;;;;;;;5.72;3.05;;;16.30;47.30;;;;;;5014806;28;20049;-52
2022/04/20 08:17:00;;;;;;;7.75;4.97;;;16.60;46.80;;;;;;5021928;28;20176;-53
2022/04/20 08:19:26;;;;;;;4.95;3.33;;;16.60;46.90;;;;;;5021861;28;20789;-53
2022/04/20 08:22:14;;;;;;;6.35;3.95;;;17.00;47.60;;;;;;5011895;28;20239;-54
2022/04/20 08:24:45;;;;;;;6.45;2.83;;;17.30;46.50;;;;;;5018147;28;20124;-52
2022/04/20 08:27:14;;;;;;;5.65;3.35;;;17.50;44.60;;;;;;5021835;28;20085;-52
2022/04/20 08:29:42;;;;;;;4.47;2.80;;;17.30;43.00;;;;;;5011728;28;20041;-52
2022/04/20 08:32:09;;;;;;;5.63;3.00;;;17.30;43.20;;;;;;5015868;28;20077;-52
2022/04/20 08:34:35;;;;;;;9.60;7.15;;;17.10;43.40;;;;;;5004229;28;20116;-55
2022/04/20 08:37:01;;;;;;;4.80;2.80;;;17.40;43.80;;;;;;4987221;28;20047;-56
2022/04/20 08:39:27;;;;;;;7.78;5.50;;;17.50;43.50;;;;;;5003269;28;20701;-55
2022/04/20 08:41:55;;;;;;;7.13;4.07;;;17.70;42.90;;;;;;5005460;28;20052;-54
2022/04/20 08:44:28;;;;;;;4.38;2.38;;;17.60;41.30;;;;;;5017778;28;20544;-57
2022/04/20 08:46:59;;;;;;;5.18;2.75;;;17.60;40.10;;;;;;5000820;28;20756;-51
2022/04/20 08:49:25;;;;;;;5.10;4.20;;;17.80;39.50;;;;;;4987183;28;20042;-52
2022/04/20 08:54:36;;;;;;;15.73;5.38;;;18.40;38.40;;;;;;5021786;28;20055;-55
2022/04/20 08:57:16;;;;;;;6.38;3.85;;;18.40;38.20;;;;;;5010525;28;20546;-55
2022/04/20 08:59:48;;;;;;;7.60;5.50;;;18.60;37.80;;;;;;5002126;28;20776;-56
2022/04/20 09:02:16;;;;;;;4.45;2.60;;;18.90;36.30;;;;;;5021889;28;20123;-54
2022/04/20 09:04:43;;;;;;;6.15;4.53;;;18.90;36.80;;;;;;5020069;28;20053;-56
2022/04/20 09:07:11;;;;;;;3.70;2.65;;;19.00;36.60;;;;;;5014623;28;20061;-56
2022/04/20 09:09:38;;;;;;;3.67;1.67;;;18.80;36.00;;;;;;5016913;28;20170;-56
2022/04/20 09:12:16;;;;;;;7.63;3.80;;;19.10;34.70;;;;;;4989792;28;20485;-57
2022/04/20 09:14:45;;;;;;;8.57;5.28;;;19.40;36.00;;;;;;5023434;28;20235;-56
2022/04/20 09:17:13;;;;;;;11.43;8.50;;;19.30;35.20;;;;;;5020815;28;20041;-56
2022/04/20 09:19:40;;;;;;;5.45;3.58;;;19.90;35.80;;;;;;5004077;28;20106;-55
2022/04/20 09:22:19;;;;;;;6.68;2.33;;;20.00;33.10;;;;;;5022371;28;20122;-57
2022/04/20 09:25:06;;;;;;;7.65;5.05;;;19.80;32.00;;;;;;5024337;28;20045;-57
2022/04/20 09:27:35;;;;;;;5.53;2.70;;;19.70;31.90;;;;;;5023990;28;20167;-57
2022/04/20 09:30:04;;;;;;;6.40;4.72;;;19.90;32.90;;;;;;5021226;28;20080;-56
2022/04/20 09:32:38;;;;;;;5.10;2.10;;;19.70;33.00;;;;;;5022012;28;20133;-56
2022/04/20 09:35:16;;;;;;;5.55;3.15;;;19.90;33.70;;;;;;4977370;28;20053;-56
2022/04/20 09:37:45;;;;;;;6.00;3.03;;;20.40;33.00;;;;;;5025955;28;20068;-55
2022/04/20 09:40:39;;;;;;;5.85;3.00;;;20.90;32.70;;;;;;5020707;28;20041;-54
2022/04/20 09:43:15;;;;;;;2.90;1.60;;;21.00;32.80;;;;;;5018629;28;20054;-54
2022/04/20 09:45:41;;;;;;;3.05;1.83;;;21.20;30.10;;;;;;5006891;28;20832;-55
2022/04/20 09:51:10;;;;;;;10.60;6.38;;;21.20;30.50;;;;;;5010320;28;20044;-56
2022/04/20 09:53:37;;;;;;;5.88;3.78;;;21.50;31.40;;;;;;5008706;28;20100;-57
2022/04/20 09:56:29;;;;;;;4.90;4.30;;;21.00;30.00;;;;;;5012388;28;20108;-57
2022/04/20 09:59:04;;;;;;;3.00;1.48;;;21.40;29.20;;;;;;4992743;28;20058;-56
2022/04/20 10:01:33;;;;;;;4.63;3.17;;;21.30;28.40;;;;;;5022594;28;20065;-56
2022/04/20 10:04:00;;;;;;;4.40;2.20;;;21.10;29.80;;;;;;5038950;28;20060;-56
2022/04/20 10:06:26;;;;;;;4.28;2.08;;;21.30;30.00;;;;;;5027353;28;20073;-56
2022/04/20 10:08:53;;;;;;;3.20;1.80;;;21.30;29.10;;;;;;5027350;28;20845;-55
2022/04/20 10:11:24;;;;;;;4.55;3.03;;;21.40;29.70;;;;;;5024040;28;20041;-56
2022/04/20 10:16:44;;;;;;;5.57;4.03;;;21.70;31.60;;;;;;5007520;28;20049;-54
2022/04/20 10:19:13;;;;;;;7.35;4.90;;;22.10;30.90;;;;;;5006748;28;20568;-54
2022/04/20 10:21:50;;;;;;;4.22;2.28;;;22.40;30.80;;;;;;5026826;28;20092;-56
2022/04/20 10:24:22;;;;;;;2.55;1.80;;;22.40;29.90;;;;;;5027097;28;20049;-57
2022/04/20 10:26:48;;;;;;;;;;;22.70;29.90;;;;;;5026527;28;20053;-57
2022/04/20 10:29:29;;;;;;;6.55;3.58;;;22.50;29.90;;;;;;5009329;28;19921;-57
2022/04/20 10:32:12;;;;;;;4.55;2.22;;;22.50;30.40;;;;;;5022370;28;20134;-56
2022/04/20 10:34:39;;;;;;;3.88;2.67;;;22.80;30.30;;;;;;5004306;28;20148;-55
2022/04/20 10:37:15;;;;;;;5.25;2.72;;;23.00;30.20;;;;;;5021803;28;20598;-54
2022/04/20 10:39:52;;;;;;;4.97;3.65;;;23.10;30.10;;;;;;5024098;28;20052;-57
2022/04/20 10:42:22;;;;;;;6.72;5.15;;;23.20;30.60;;;;;;5007035;28;20045;-56
2022/04/20 10:44:55;;;;;;;3.53;2.40;;;23.20;30.40;;;;;;5021912;28;20134;-55
2022/04/20 10:47:25;;;;;;;4.15;2.03;;;23.20;29.90;;;;;;5013706;28;20812;-57
2022/04/20 10:49:52;;;;;;;6.00;3.42;;;22.80;29.10;;;;;;5014224;28;20054;-57
2022/04/20 10:52:44;;;;;;;6.10;3.13;;;22.70;30.50;;;;;;5016307;28;20053;-58
2022/04/20 10:55:12;;;;;;;4.10;3.00;;;22.90;31.00;;;;;;4989895;28;20064;-56
2022/04/20 10:57:40;;;;;;;8.05;4.40;;;22.70;30.60;;;;;;5016133;28;20049;-58
2022/04/20 11:00:22;;;;;;;9.65;5.80;;;22.80;31.10;;;;;;5012267;28;20084;-57
2022/04/20 11:02:54;;;;;;;3.92;2.35;;;22.90;30.70;;;;;;5012496;28;20041;-56
2022/04/20 11:05:24;;;;;;;7.55;4.07;;;22.90;30.10;;;;;;5017031;28;20096;-56
2022/04/20 11:08:00;;;;;;;4.35;3.13;;;22.90;30.30;;;;;;4997198;28;20045;-56
2022/04/20 11:10:27;;;;;;;5.13;2.40;;;22.90;30.80;;;;;;5017501;28;20057;-57
2022/04/20 11:19:11;;;;;;;6.70;3.55;;;23.60;29.90;;;;;;5015859;28;20495;-56
2022/04/20 11:22:07;;;;;;;3.97;3.00;;;24.10;29.80;;;;;;5014906;28;20049;-57
2022/04/20 11:24:33;;;;;;;5.68;2.97;;;24.30;30.20;;;;;;5018550;28;20049;-56
2022/04/20 11:27:00;;;;;;;3.63;1.63;;;23.50;28.20;;;;;;5016491;28;20042;-57
2022/04/20 11:29:30;;;;;;;3.40;2.00;;;23.70;28.30;;;;;;5015165;28;20056;-56
2022/04/20 11:32:02;;;;;;;6.75;3.78;;;23.90;28.90;;;;;;5011923;28;20592;-56
2022/04/20 11:35:07;;;;;;;4.07;2.38;;;24.10;28.90;;;;;;5011800;28;20058;-55
2022/04/20 11:37:34;;;;;;;;;;;23.70;28.70;;;;;;5015599;28;20049;-56
2022/04/20 11:40:07;;;;;;;4.32;2.17;;;23.70;27.40;;;;;;5013069;28;20543;-56
2022/04/20 11:42:34;;;;;;;4.05;1.55;;;23.70;28.00;;;;;;5011436;28;20053;-56
2022/04/20 11:45:02;;;;;;;4.60;2.08;;;24.00;27.60;;;;;;5018073;28;20121;-56
2022/04/20 11:47:37;;;;;;;6.18;1.50;;;24.20;28.10;;;;;;5024046;28;20531;-56
2022/04/20 11:50:04;;;;;;;3.85;1.50;;;24.30;28.10;;;;;;5021267;28;20107;-56
2022/04/20 11:52:57;;;;;;;2.45;1.10;;;24.60;26.90;;;;;;5022120;28;20410;-56
2022/04/20 11:55:49;;;;;;;2.92;1.70;;;24.40;26.50;;;;;;5014541;28;20050;-56
2022/04/20 11:58:16;;;;;;;3.28;2.20;;;24.60;27.40;;;;;;4997425;28;20104;-57
2022/04/20 12:00:43;;;;;;;4.13;1.77;;;23.80;27.10;;;;;;5016074;28;20136;-56
2022/04/20 12:03:09;;;;;;;2.63;1.90;;;24.10;27.60;;;;;;5022067;28;20557;-57
2022/04/20 12:05:35;;;;;;;6.43;2.17;;;24.30;28.00;;;;;;5001534;28;20065;-57
2022/04/20 12:08:02;;;;;;;3.88;1.40;;;24.00;28.70;;;;;;5022494;28;20868;-58
2022/04/20 12:10:30;;;;;;;4.55;2.15;;;24.70;28.70;;;;;;5020744;28;20939;-56
2022/04/20 12:12:58;;;;;;;5.40;3.08;;;24.30;28.40;;;;;;5018498;28;20139;-55
2022/04/20 12:15:24;;;;;;;4.07;2.92;;;24.50;27.70;;;;;;5020561;28;20050;-55
2022/04/20 12:17:55;;;;;;;4.07;1.50;;;24.60;27.60;;;;;;5017956;28;20089;-55
2022/04/20 12:20:24;;;;;;;7.68;6.18;;;25.20;27.00;;;;;;5002373;28;20900;-57
2022/04/20 12:23:06;;;;;;;22.30;6.50;;;25.40;27.60;;;;;;5006361;28;20636;-56
2022/04/20 12:25:33;;;;;;;7.53;5.38;;;24.90;27.10;;;;;;5006216;28;20136;-56
2022/04/20 12:28:35;;;;;;;5.18;2.90;;;25.00;27.20;;;;;;5021820;28;20049;-56
2022/04/20 12:30:45;;;;;;;5.70;4.30;;;25.10;26.80;;;;;;5014623;28;20076;-56
2022/04/20 12:33:24;;;;;;;3.05;1.92;;;24.80;26.70;;;;;;5018910;28;20049;-56
2022/04/20 12:36:08;;;;;;;5.88;4.35;;;25.10;27.00;;;;;;5018679;28;20143;-56
2022/04/20 12:38:49;;;;;;;4.80;3.72;;;25.20;26.60;;;;;;5012102;28;20124;-56
2022/04/20 12:41:43;;;;;;;3.97;2.50;;;25.10;27.40;;;;;;5013574;28;20045;-56
2022/04/20 12:44:37;;;;;;;8.50;4.82;;;25.30;27.10;;;;;;5020284;28;20061;-53
2022/04/20 12:47:12;;;;;;;6.55;1.70;;;25.50;27.20;;;;;;5003254;28;20053;-54
2022/04/20 12:49:38;;;;;;;12.13;10.82;;;25.70;26.80;;;;;;5010959;28;20049;-53
2022/04/20 12:52:13;;;;;;;9.95;8.95;;;25.30;27.00;;;;;;5007998;28;20451;-54
2022/04/20 12:54:51;;;;;;;7.90;5.68;;;25.40;26.60;;;;;;5016629;28;20041;-54
2022/04/20 13:03:05;;;;;;;24.73;5.68;;;24.90;27.20;;;;;;5016414;28;20092;-54
2022/04/20 13:05:33;;;;;;;22.90;4.85;;;25.50;27.30;;;;;;5032960;28;20041;-51
2022/04/20 13:08:00;;;;;;;29.00;7.82;;;25.60;26.90;;;;;;5020716;28;20060;-53
2022/04/20 13:10:26;;;;;;;8.35;3.42;;;25.40;27.20;;;;;;5022222;28;20041;-54
2022/04/20 13:12:54;;;;;;;5.82;2.20;;;25.40;27.00;;;;;;5020883;28;20473;-56
2022/04/20 13:15:24;;;;;;;7.32;3.55;;;25.70;26.90;;;;;;4986535;28;20138;-57
2022/04/20 13:17:51;;;;;;;6.97;6.28;;;25.10;26.70;;;;;;5004568;28;20041;-56
2022/04/20 13:20:19;;;;;;;5.93;2.30;;;25.50;27.30;;;;;;4996095;28;20167;-56
2022/04/20 13:22:45;;;;;;;6.47;4.72;;;25.80;26.90;;;;;;4977315;28;20505;-54
2022/04/20 13:27:57;;;;;;;5.88;2.70;;;25.10;27.00;;;;;;4993898;28;20528;-54
2022/04/20 13:30:49;;;;;;;5.85;3.53;;;24.90;27.00;;;;;;5008851;28;20727;-54
2022/04/20 13:33:16;;;;;;;4.13;2.67;;;24.40;27.00;;;;;;5012648;28;20127;-52
2022/04/20 13:35:45;;;;;;;7.13;2.28;;;24.70;27.60;;;;;;5015781;28;20110;-54
2022/04/20 13:38:11;;;;;;;7.03;2.42;;;24.70;28.10;;;;;;5013846;28;20077;-53
2022/04/20 13:40:42;;;;;;;3.58;2.55;;;25.00;28.30;;;;;;5016676;28;20826;-57
2022/04/20 13:43:09;;;;;;;4.53;3.22;;;25.30;27.70;;;;;;5021252;28;20053;-52
2022/04/20 13:45:35;;;;;;;4.40;3.05;;;25.10;28.00;;;;;;5012801;28;20049;-52
2022/04/20 13:48:02;;;;;;;3.67;2.40;;;25.20;27.70;;;;;;5015337;28;20045;-50
2022/04/20 13:50:28;;;;;;;8.57;5.15;;;25.10;27.80;;;;;;5021914;28;20049;-52
2022/04/20 13:52:55;;;;;;;5.55;3.80;;;25.00;28.50;;;;;;5013546;28;20042;-53
2022/04/20 13:55:22;;;;;;;8.45;2.58;;;25.50;28.70;;;;;;5027174;28;20056;-53
2022/04/20 13:57:48;;;;;;;6.78;4.55;;;25.30;27.80;;;;;;4998990;28;20049;-53
2022/04/20 14:00:15;;;;;;;5.13;2.40;;;25.10;28.40;;;;;;5019760;28;20144;-53
2022/04/20 14:02:42;;;;;;;6.38;4.57;;;25.20;28.30;;;;;;5019589;28;20526;-57
2022/04/20 14:05:09;;;;;;;5.60;4.43;;;25.30;28.20;;;;;;5021629;28;20095;-59
2022/04/20 14:07:35;;;;;;;3.25;2.35;;;25.70;28.00;;;;;;5018657;28;20088;-57